Time;durP1;ratioP1;P1;durP2;ratioP2;P2;SDS_P1;SDS_P2;PMS_P1;PMS_P2;Temp;Humidity;BMP_temperature;BMP_pressure;BME280_temperature;BME280_humidity;BME280_pressure;Samples;Min_cycle;Max_cycle;Signal;HPM_P1;HPM_P2
2023/04/13 00:00:12;;;;;;;;;;;7.60;99.90;;;;;;5040446;28;19923;-64
2023/04/13 00:02:39;;;;;;;;;;;7.60;99.90;;;;;;5030068;28;19921;-64
2023/04/13 00:05:06;;;;;;;;;;;7.60;99.90;;;;;;5031818;28;19913;-63
2023/04/13 00:07:32;;;;;;;;;;;7.60;99.90;;;;;;5039097;28;19913;-64
2023/04/13 00:10:01;;;;;;;;;;;7.60;99.90;;;;;;5030365;28;19913;-63
2023/04/13 00:12:27;;;;;;;;;;;7.60;99.90;;;;;;5046034;28;20007;-63
2023/04/13 00:14:52;;;;;;;;;;;7.60;99.90;;;;;;5048891;28;19952;-63
2023/04/13 00:17:18;;;;;;;;;;;7.50;99.90;;;;;;5048849;28;19913;-63
2023/04/13 00:19:46;;;;;;;;;;;7.50;99.90;;;;;;5034857;28;20330;-63
2023/04/13 00:22:13;;;;;;;;;;;7.40;99.90;;;;;;5037547;28;19987;-63
2023/04/13 00:24:38;;;;;;;;;;;7.40;99.90;;;;;;5041997;28;20436;-62
2023/04/13 00:27:04;;;;;;;;;;;7.50;99.90;;;;;;5038146;28;19953;-64
2023/04/13 00:29:29;;;;;;;;;;;7.30;99.90;;;;;;5037544;28;20016;-62
2023/04/13 00:31:55;;;;;;;;;;;7.40;99.90;;;;;;5039263;28;19913;-63
2023/04/13 00:34:21;;;;;;;;;;;7.40;99.90;;;;;;5036790;28;19920;-63
2023/04/13 00:36:47;;;;;;;;;;;7.40;99.90;;;;;;5038852;28;19916;-63
2023/04/13 00:39:14;;;;;;;;;;;7.30;99.90;;;;;;5036802;28;20384;-63
2023/04/13 00:41:40;;;;;;;;;;;7.30;99.90;;;;;;5036356;28;20008;-62
2023/04/13 00:44:07;;;;;;;;;;;7.40;99.90;;;;;;5051388;28;19967;-63
2023/04/13 00:46:33;;;;;;;;;;;7.40;99.90;;;;;;5040986;28;20007;-62
2023/04/13 00:49:00;;;;;;;;;;;7.40;99.90;;;;;;5045337;28;20376;-62
2023/04/13 00:51:29;;;;;;;;;;;7.30;99.90;;;;;;5051920;28;19919;-63
2023/04/13 00:53:56;;;;;;;;;;;7.30;99.90;;;;;;5048454;28;19913;-63
2023/04/13 00:56:26;;;;;;;;;;;7.30;99.90;;;;;;5052316;28;19913;-62
2023/04/13 00:58:52;;;;;;;;;;;7.40;99.90;;;;;;5048239;28;19919;-62
2023/04/13 01:01:18;;;;;;;;;;;7.40;99.90;;;;;;5041249;28;19929;-62
2023/04/13 01:03:43;;;;;;;;;;;7.40;99.90;;;;;;5043758;28;19913;-63
2023/04/13 01:06:20;;;;;;;;;;;7.30;99.90;;;;;;5036801;28;19967;-62
2023/04/13 01:08:51;;;;;;;;;;;7.20;99.90;;;;;;5022148;28;19920;-62
2023/04/13 01:11:20;;;;;;;;;;;7.20;99.90;;;;;;5023288;28;19982;-63
2023/04/13 01:13:51;;;;;;;;;;;7.20;99.90;;;;;;5031829;28;19967;-63
2023/04/13 01:16:23;;;;;;;;;;;7.20;99.90;;;;;;5036704;28;19956;-63
2023/04/13 01:18:52;;;;;;;;;;;7.20;99.90;;;;;;5027250;28;19971;-63
2023/04/13 01:21:20;;;;;;;;;;;7.20;99.90;;;;;;5035319;28;20387;-63
2023/04/13 01:24:02;;;;;;;;;;;7.10;99.90;;;;;;5031606;28;19913;-63
2023/04/13 01:26:35;;;;;;;;;;;7.20;99.90;;;;;;5035866;28;19986;-62
2023/04/13 01:29:01;;;;;;;;;;;7.10;99.90;;;;;;5039857;28;20331;-63
2023/04/13 01:31:27;;;;;;;;;;;7.10;99.90;;;;;;5039763;28;20388;-63
2023/04/13 01:33:52;;;;;;;;;;;7.20;99.90;;;;;;5034060;28;19913;-64
2023/04/13 01:36:18;;;;;;;;;;;7.20;99.90;;;;;;5033183;28;19913;-64
2023/04/13 01:38:45;;;;;;;;;;;7.20;99.90;;;;;;5038824;28;19920;-63
2023/04/13 01:41:11;;;;;;;;;;;7.30;99.90;;;;;;5033639;28;20288;-62
2023/04/13 01:43:36;;;;;;;;;;;7.30;99.90;;;;;;5036360;28;19937;-63
2023/04/13 01:46:04;;;;;;;;;;;7.30;99.90;;;;;;5034452;28;19983;-64
2023/04/13 01:48:30;;;;;;;;;;;7.10;99.90;;;;;;5038811;28;19913;-62
2023/04/13 01:51:06;;;;;;;;;;;7.10;99.90;;;;;;5034605;28;19921;-63
2023/04/13 01:53:43;;;;;;;;;;;7.10;99.90;;;;;;5032581;28;19921;-63
2023/04/13 01:56:11;;;;;;;;;;;7.10;99.90;;;;;;5038116;28;19926;-60
2023/04/13 01:58:39;;;;;;;;;;;7.00;99.90;;;;;;5044498;28;20013;-62
2023/04/13 02:01:06;;;;;;;;;;;7.00;99.90;;;;;;5038092;28;19921;-63
2023/04/13 02:03:33;;;;;;;;;;;6.90;99.90;;;;;;5043762;28;19912;-63
2023/04/13 02:06:00;;;;;;;;;;;6.90;99.90;;;;;;5040807;28;20332;-63
2023/04/13 02:08:26;;;;;;;;;;;6.90;99.90;;;;;;5044386;28;19974;-63
2023/04/13 02:10:51;;;;;;;;;;;6.90;99.90;;;;;;5038551;28;19913;-63
2023/04/13 02:13:17;;;;;;;;;;;6.80;99.90;;;;;;5043803;28;20312;-63
2023/04/13 02:15:43;;;;;;;;;;;6.80;99.90;;;;;;5046510;28;19913;-63
2023/04/13 02:18:10;;;;;;;;;;;6.80;99.90;;;;;;5040185;28;19913;-63
2023/04/13 02:20:42;;;;;;;;;;;6.80;99.90;;;;;;5039383;28;19925;-63
2023/04/13 02:23:09;;;;;;;;;;;6.80;99.90;;;;;;5033040;28;20008;-63
2023/04/13 02:25:35;;;;;;;;;;;6.80;99.90;;;;;;5033847;28;19967;-63
2023/04/13 02:28:00;;;;;;;;;;;6.80;99.90;;;;;;5040018;28;19913;-61
2023/04/13 02:30:26;;;;;;;;;;;6.80;99.90;;;;;;5018448;28;20258;-62
2023/04/13 02:32:53;;;;;;;;;;;6.80;99.90;;;;;;5033566;28;20392;-61
2023/04/13 02:35:19;;;;;;;;;;;6.80;99.90;;;;;;5029513;28;19971;-62
2023/04/13 02:37:45;;;;;;;;;;;6.90;99.90;;;;;;5033118;28;19912;-62
2023/04/13 02:40:11;;;;;;;;;;;6.90;99.90;;;;;;5035164;28;20258;-62
2023/04/13 02:42:37;;;;;;;;;;;6.70;99.90;;;;;;5030902;28;20392;-61
2023/04/13 02:45:04;;;;;;;;;;;6.70;99.90;;;;;;5019929;28;20373;-62
2023/04/13 02:47:32;;;;;;;;;;;6.70;99.90;;;;;;5033189;28;19963;-62
2023/04/13 02:49:58;;;;;;;;;;;6.60;99.90;;;;;;5028670;28;19913;-62
2023/04/13 02:52:23;;;;;;;;;;;6.60;99.90;;;;;;5031242;28;19919;-62
2023/04/13 02:54:53;;;;;;;;;;;6.60;99.90;;;;;;5033419;28;20296;-62
2023/04/13 02:57:19;;;;;;;;;;;6.60;99.90;;;;;;5043294;28;19912;-61
2023/04/13 02:59:45;;;;;;;;;;;6.50;99.90;;;;;;5037999;28;19913;-62
2023/04/13 03:02:12;;;;;;;;;;;6.40;99.90;;;;;;5030501;28;20266;-62
2023/04/13 03:04:37;;;;;;;;;;;6.40;99.90;;;;;;5038969;28;19917;-62
2023/04/13 03:07:04;;;;;;;;;;;6.30;99.90;;;;;;5032334;28;19913;-63
2023/04/13 03:09:30;;;;;;;;;;;6.20;99.90;;;;;;5033940;28;20365;-63
2023/04/13 03:11:55;;;;;;;;;;;6.20;99.90;;;;;;5032967;28;19913;-63
2023/04/13 03:14:21;;;;;;;;;;;6.10;99.90;;;;;;5039441;28;20396;-63
2023/04/13 03:16:47;;;;;;;;;;;6.20;99.90;;;;;;5032184;28;19921;-62
2023/04/13 03:19:13;;;;;;;;;;;6.20;99.90;;;;;;5030767;28;20361;-62
2023/04/13 03:21:40;;;;;;;;;;;6.10;99.90;;;;;;5038582;28;19921;-63
2023/04/13 03:24:06;;;;;;;;;;;6.00;99.90;;;;;;5031976;28;19913;-62
2023/04/13 03:26:33;;;;;;;;;;;6.00;99.90;;;;;;5030521;28;20283;-63
2023/04/13 03:28:59;;;;;;;;;;;6.10;99.90;;;;;;5032654;28;19985;-62
2023/04/13 03:31:25;;;;;;;;;;;6.10;99.90;;;;;;5043925;28;20434;-62
2023/04/13 03:33:50;;;;;;;;;;;6.20;99.90;;;;;;5042939;28;19913;-62
2023/04/13 03:36:16;;;;;;;;;;;6.20;99.90;;;;;;5036223;28;20004;-62
2023/04/13 03:38:41;;;;;;;;;;;6.10;99.90;;;;;;5028787;28;20372;-62
2023/04/13 03:41:07;;;;;;;;;;;6.00;99.90;;;;;;5040620;28;19965;-62
2023/04/13 03:43:33;;;;;;;;;;;5.90;99.90;;;;;;5037408;28;19921;-62
2023/04/13 03:45:58;;;;;;;;;;;5.90;99.90;;;;;;5042138;28;19924;-63
2023/04/13 03:48:24;;;;;;;;;;;5.80;99.90;;;;;;5037616;28;19916;-62
2023/04/13 03:50:50;;;;;;;;;;;5.80;99.90;;;;;;5037162;28;19943;-62
2023/04/13 03:53:15;;;;;;;;;;;5.90;99.90;;;;;;5034603;28;19913;-62
2023/04/13 03:55:41;;;;;;;;;;;5.90;99.90;;;;;;5035607;28;20377;-63
2023/04/13 03:58:06;;;;;;;;;;;6.00;99.90;;;;;;5032199;28;19913;-62
2023/04/13 04:00:32;;;;;;;;;;;5.90;99.90;;;;;;5027188;28;19918;-63
2023/04/13 04:02:58;;;;;;;;;;;5.90;99.90;;;;;;5029017;28;19921;-62
2023/04/13 04:05:23;;;;;;;;;;;5.90;99.90;;;;;;5033104;28;19917;-62
2023/04/13 04:07:49;;;;;;;;;;;6.00;99.90;;;;;;5028887;28;19939;-62
2023/04/13 04:10:16;;;;;;;;;;;5.90;99.90;;;;;;5025664;28;19944;-61
2023/04/13 04:12:42;;;;;;;;;;;5.80;99.90;;;;;;5040462;28;19932;-61
2023/04/13 04:15:08;;;;;;;;;;;5.90;99.90;;;;;;5030890;28;20336;-62
2023/04/13 04:17:33;;;;;;;;;;;5.90;99.90;;;;;;5036762;28;19920;-62
2023/04/13 04:19:59;;;;;;;;;;;5.90;99.90;;;;;;5043703;28;19920;-61
2023/04/13 04:22:28;;;;;;;;;;;5.90;99.90;;;;;;5033405;28;19928;-63
2023/04/13 04:25:00;;;;;;;;;;;5.90;99.90;;;;;;5037707;28;19913;-62
2023/04/13 04:27:26;;;;;;;;;;;6.00;99.90;;;;;;5031561;28;19913;-62
2023/04/13 04:29:52;;;;;;;;;;;5.90;99.90;;;;;;5037029;28;20353;-62
2023/04/13 04:32:18;;;;;;;;;;;5.90;99.90;;;;;;5031020;28;19918;-62
2023/04/13 04:34:45;;;;;;;;;;;5.80;99.90;;;;;;5038196;28;20318;-62
2023/04/13 04:37:13;;;;;;;;;;;5.80;99.90;;;;;;5042869;28;19957;-63
2023/04/13 04:39:43;;;;;;;;;;;5.70;99.90;;;;;;5037546;28;20026;-63
2023/04/13 04:42:09;;;;;;;;;;;5.80;99.90;;;;;;5033534;28;19928;-62
2023/04/13 04:44:36;;;;;;;;;;;5.80;99.90;;;;;;5037898;28;19921;-63
2023/04/13 04:47:02;;;;;;;;;;;5.80;99.90;;;;;;5041921;28;19919;-63
2023/04/13 04:49:29;;;;;;;;;;;5.90;99.90;;;;;;5033556;28;19956;-62
2023/04/13 04:51:56;;;;;;;;;;;5.80;99.90;;;;;;5040559;28;19936;-62
2023/04/13 04:54:22;;;;;;;;;;;5.70;99.90;;;;;;5041690;28;20494;-62
2023/04/13 04:56:49;;;;;;;;;;;5.70;99.90;;;;;;5036010;28;19924;-63
2023/04/13 04:59:14;;;;;;;;;;;5.80;99.90;;;;;;5034094;28;20403;-63
2023/04/13 05:01:41;;;;;;;;;;;5.80;99.90;;;;;;5037275;28;20324;-62
2023/04/13 05:04:07;;;;;;;;;;;5.80;99.90;;;;;;5040291;28;19921;-62
2023/04/13 05:06:33;;;;;;;;;;;5.80;99.90;;;;;;5040180;28;19913;-61
2023/04/13 05:09:00;;;;;;;;;;;5.80;99.90;;;;;;5041603;28;20386;-62
2023/04/13 05:11:29;;;;;;;;;;;5.80;99.90;;;;;;5038070;28;19914;-63
2023/04/13 05:13:55;;;;;;;;;;;5.80;99.90;;;;;;5032071;28;19959;-63
2023/04/13 05:16:21;;;;;;;;;;;5.80;99.90;;;;;;5028232;28;19917;-62
2023/04/13 05:18:47;;;;;;;;;;;5.70;99.90;;;;;;5036465;28;20353;-62
2023/04/13 05:21:13;;;;;;;;;;;5.70;99.90;;;;;;5034253;28;20292;-62
2023/04/13 05:23:39;;;;;;;;;;;5.70;99.90;;;;;;5036274;28;20372;-62
2023/04/13 05:26:05;;;;;;;;;;;5.80;99.90;;;;;;5034672;28;19971;-62
2023/04/13 05:28:30;;;;;;;;;;;5.80;99.90;;;;;;5034419;28;19913;-62
2023/04/13 05:31:00;;;;;;;;;;;5.80;99.90;;;;;;5029247;28;20000;-61
2023/04/13 05:33:26;;;;;;;;;;;5.90;99.90;;;;;;5038346;28;19913;-61
2023/04/13 05:35:51;;;;;;;;;;;5.90;99.90;;;;;;5030945;28;20256;-61
2023/04/13 05:38:17;;;;;;;;;;;5.90;99.90;;;;;;5040111;28;20401;-62
2023/04/13 05:40:43;;;;;;;;;;;5.90;99.90;;;;;;5033556;28;19921;-62
2023/04/13 05:43:10;;;;;;;;;;;5.90;99.90;;;;;;5035241;28;19921;-61
2023/04/13 05:45:35;;;;;;;;;;;5.90;99.90;;;;;;5025874;28;19921;-62
2023/04/13 05:48:01;;;;;;;;;;;5.90;99.90;;;;;;5030016;28;20326;-62
2023/04/13 05:50:27;;;;;;;;;;;6.00;99.90;;;;;;5031407;28;19913;-62
2023/04/13 05:52:52;;;;;;;;;;;6.00;99.90;;;;;;5030215;28;20011;-62
2023/04/13 05:55:18;;;;;;;;;;;5.90;99.90;;;;;;5037307;28;19913;-62
2023/04/13 05:57:44;;;;;;;;;;;5.90;99.90;;;;;;5029665;28;19913;-62
2023/04/13 06:00:10;;;;;;;;;;;5.90;99.90;;;;;;5040949;28;19920;-62
2023/04/13 06:02:37;;;;;;;;;;;5.90;99.90;;;;;;5030332;28;19924;-62
2023/04/13 06:05:03;;;;;;;;;;;5.90;99.90;;;;;;5028801;28;19943;-62
2023/04/13 06:07:29;;;;;;;;;;;5.90;99.90;;;;;;5022527;28;19936;-62
2023/04/13 06:09:55;;;;;;;;;;;6.00;99.90;;;;;;5031551;28;20428;-62
2023/04/13 06:12:20;;;;;;;;;;;6.00;99.90;;;;;;5023581;28;19983;-62
2023/04/13 06:14:46;;;;;;;;;;;6.10;99.90;;;;;;5028822;28;20281;-62
2023/04/13 06:17:12;;;;;;;;;;;6.20;99.90;;;;;;5024330;28;19916;-63
2023/04/13 06:19:37;;;;;;;;;;;6.20;99.90;;;;;;5037490;28;19920;-63
2023/04/13 06:22:03;;;;;;;;;;;6.20;99.90;;;;;;5025381;28;19928;-63
2023/04/13 06:24:29;;;;;;;;;;;6.20;99.90;;;;;;5028211;28;19913;-62
2023/04/13 06:26:55;;;;;;;;;;;6.30;99.90;;;;;;5031709;28;19913;-62
2023/04/13 06:29:20;;;;;;;;;;;6.30;99.90;;;;;;5040706;28;19916;-63
2023/04/13 06:31:46;;;;;;;;;;;6.40;99.90;;;;;;5036221;28;19913;-62
2023/04/13 06:34:12;;;;;;;;;;;6.40;99.90;;;;;;5038674;28;19956;-62
2023/04/13 06:36:39;;;;;;;;;;;6.50;99.90;;;;;;5036048;28;20290;-63
2023/04/13 06:39:05;;;;;;;;;;;6.50;99.90;;;;;;5033351;28;19914;-62
2023/04/13 06:41:31;;;;;;;;;;;6.60;99.90;;;;;;5040191;28;20376;-63
2023/04/13 06:43:56;;;;;;;;;;;6.60;99.90;;;;;;5029865;28;19932;-62
2023/04/13 06:46:22;;;;;;;;;;;6.60;99.90;;;;;;5032513;28;20095;-62
2023/04/13 06:48:48;;;;;;;;;;;6.60;99.90;;;;;;5029142;28;19924;-62
2023/04/13 06:51:14;;;;;;;;;;;6.70;99.90;;;;;;5026758;28;20415;-63
2023/04/13 06:53:40;;;;;;;;;;;6.70;99.90;;;;;;5030820;28;19994;-62
2023/04/13 06:56:05;;;;;;;;;;;6.80;99.90;;;;;;5025917;28;19913;-63
2023/04/13 06:58:31;;;;;;;;;;;6.80;99.90;;;;;;5028681;28;19964;-63
2023/04/13 07:00:57;;;;;;;;;;;6.90;99.90;;;;;;5033418;28;19921;-62
2023/04/13 07:03:22;;;;;;;;;;;6.90;99.90;;;;;;5026464;28;19921;-63
2023/04/13 07:05:48;;;;;;;;;;;6.90;99.90;;;;;;5024824;28;19924;-62
2023/04/13 07:08:14;;;;;;;;;;;7.00;99.90;;;;;;5031395;28;19913;-62
2023/04/13 07:10:39;;;;;;;;;;;7.10;99.90;;;;;;5027122;28;19980;-63
2023/04/13 07:13:06;;;;;;;;;;;7.10;99.90;;;;;;5025722;28;20003;-62
2023/04/13 07:15:31;;;;;;;;;;;7.10;99.90;;;;;;5025185;28;19917;-62
2023/04/13 07:17:57;;;;;;;;;;;7.10;99.90;;;;;;5027313;28;20399;-61
2023/04/13 07:20:23;;;;;;;;;;;7.20;99.90;;;;;;5026096;28;19919;-62
2023/04/13 07:22:48;;;;;;;;;;;7.20;99.90;;;;;;5023051;28;20334;-61
2023/04/13 07:25:14;;;;;;;;;;;7.20;99.90;;;;;;5025473;28;19913;-62
2023/04/13 07:27:40;;;;;;;;;;;7.30;99.90;;;;;;5030797;28;20115;-62
2023/04/13 07:30:07;;;;;;;;;;;7.30;99.90;;;;;;5024794;28;20007;-61
2023/04/13 07:32:32;;;;;;;;;;;7.30;99.90;;;;;;5023775;28;19957;-62
2023/04/13 07:35:00;;;;;;;;;;;7.40;99.90;;;;;;5027577;28;20407;-62
2023/04/13 07:37:26;;;;;;;;;;;7.40;99.90;;;;;;5027763;28;20004;-63
2023/04/13 07:39:52;;;;;;;;;;;7.50;99.90;;;;;;5027885;28;20003;-62
2023/04/13 07:42:17;;;;;;;;;;;7.50;99.90;;;;;;5028379;28;19932;-63
2023/04/13 07:44:43;;;;;;;;;;;7.60;99.90;;;;;;5024842;28;19921;-62
2023/04/13 07:47:09;;;;;;;;;;;7.60;99.90;;;;;;5031267;28;19920;-63
2023/04/13 07:49:36;;;;;;;;;;;7.70;99.90;;;;;;5043857;28;20392;-62
2023/04/13 07:52:02;;;;;;;;;;;7.70;99.90;;;;;;5026283;28;19957;-63
2023/04/13 07:54:28;;;;;;;;;;;7.70;99.90;;;;;;5028500;28;19917;-62
2023/04/13 07:56:55;;;;;;;;;;;7.80;99.90;;;;;;5024323;28;19920;-62
2023/04/13 07:59:21;;;;;;;;;;;7.90;99.90;;;;;;5030222;28;20435;-62
2023/04/13 08:01:46;;;;;;;;;;;7.80;99.90;;;;;;5023561;28;19921;-63
2023/04/13 08:04:12;;;;;;;;;;;7.80;99.90;;;;;;5026664;28;19920;-63
2023/04/13 08:06:37;;;;;;;;;;;7.80;99.90;;;;;;5027474;28;20353;-62
2023/04/13 08:09:03;;;;;;;;;;;7.90;99.90;;;;;;5026552;28;19917;-62
2023/04/13 08:11:29;;;;;;;;;;;8.00;99.90;;;;;;5026258;28;19913;-62
2023/04/13 08:13:55;;;;;;;;;;;8.00;99.90;;;;;;5024654;28;20001;-63
2023/04/13 08:16:20;;;;;;;;;;;8.10;99.90;;;;;;5027245;28;19913;-63
2023/04/13 08:18:46;;;;;;;;;;;8.20;99.90;;;;;;5024982;28;19958;-63
2023/04/13 08:21:13;;;;;;;;;;;8.10;99.90;;;;;;5030107;28;19928;-62
2023/04/13 08:23:40;;;;;;;;;;;8.30;99.90;;;;;;5030777;28;20296;-62
2023/04/13 08:26:06;;;;;;;;;;;8.30;99.90;;;;;;5029375;28;19917;-62
2023/04/13 08:28:31;;;;;;;;;;;8.30;99.90;;;;;;5025870;28;20385;-63
2023/04/13 08:30:57;;;;;;;;;;;8.40;99.90;;;;;;5029444;28;19913;-63
2023/04/13 08:33:23;;;;;;;;;;;8.50;99.90;;;;;;5034454;28;19921;-62
2023/04/13 08:35:48;;;;;;;;;;;8.50;99.90;;;;;;5032820;28;20333;-63
2023/04/13 08:38:14;;;;;;;;;;;8.50;99.90;;;;;;5040786;28;19948;-63
2023/04/13 08:40:39;;;;;;;;;;;8.60;99.90;;;;;;5033146;28;20388;-63
2023/04/13 08:43:08;;;;;;;;;;;8.70;99.90;;;;;;5033338;28;19952;-64
2023/04/13 08:45:33;;;;;;;;;;;8.70;99.90;;;;;;5027845;28;20004;-63
2023/04/13 08:48:02;;;;;;;;;;;8.80;99.90;;;;;;5025981;28;19960;-66
2023/04/13 08:50:28;;;;;;;;;;;8.90;99.90;;;;;;5035025;28;19967;-63
2023/04/13 08:52:54;;;;;;;;;;;8.90;99.90;;;;;;5031156;28;19913;-62
2023/04/13 08:55:20;;;;;;;;;;;9.00;99.90;;;;;;5032415;28;19920;-63
2023/04/13 08:57:47;;;;;;;;;;;9.10;99.90;;;;;;5032582;28;19921;-62
2023/04/13 09:00:16;;;;;;;;;;;9.20;99.90;;;;;;5035025;28;19913;-63
2023/04/13 09:02:47;;;;;;;;;;;9.20;99.90;;;;;;5021254;28;19917;-63
2023/04/13 09:05:16;;;;;;;;;;;9.20;99.90;;;;;;5027708;28;19918;-62
2023/04/13 09:07:44;;;;;;;;;;;9.40;99.90;;;;;;5036689;28;19966;-62
2023/04/13 09:10:10;;;;;;;;;;;9.50;99.90;;;;;;5031863;28;20000;-62
2023/04/13 09:12:35;;;;;;;;;;;9.70;99.90;;;;;;5030743;28;19920;-62
2023/04/13 09:15:04;;;;;;;;;;;9.80;99.90;;;;;;5031341;28;20000;-62
2023/04/13 09:17:33;;;;;;;;;;;9.90;99.90;;;;;;5032163;28;19913;-63
2023/04/13 09:20:13;;;;;;;;;;;9.90;99.90;;;;;;5034433;28;19960;-62
2023/04/13 09:22:39;;;;;;;;;;;10.00;99.90;;;;;;5029623;28;19925;-63
2023/04/13 09:25:06;;;;;;;;;;;9.90;99.90;;;;;;5034911;28;19917;-62
2023/04/13 09:27:33;;;;;;;;;;;9.80;99.90;;;;;;5037504;28;19982;-62
2023/04/13 09:30:01;;;;;;;;;;;9.90;99.90;;;;;;5049365;28;19929;-62
2023/04/13 09:32:27;;;;;;;;;;;9.90;99.90;;;;;;5028958;28;19913;-65
2023/04/13 09:35:00;;;;;;;;;;;10.00;99.90;;;;;;5035181;28;19913;-63
2023/04/13 09:37:27;;;;;;;;;;;10.00;99.90;;;;;;5037662;28;19913;-63
2023/04/13 09:39:53;;;;;;;;;;;10.10;99.90;;;;;;5027730;28;19912;-62
2023/04/13 09:42:19;;;;;;;;;;;10.10;99.90;;;;;;5034250;28;20023;-63
2023/04/13 09:44:55;;;;;;;;;;;10.10;99.90;;;;;;5032756;28;20023;-63
2023/04/13 09:47:21;;;;;;;;;;;10.20;99.90;;;;;;5031026;28;19913;-63
2023/04/13 09:49:46;;;;;;;;;;;10.20;99.90;;;;;;5037157;28;19920;-63
2023/04/13 09:52:18;;;;;;;;;;;10.40;99.90;;;;;;5036349;28;19913;-63
2023/04/13 09:54:48;;;;;;;;;;;10.40;99.90;;;;;;5030066;28;19924;-62
2023/04/13 09:57:21;;;;;;;;;;;10.50;99.90;;;;;;5038730;28;19921;-63
2023/04/13 09:59:47;;;;;;;;;;;10.50;99.90;;;;;;5011784;28;20006;-63
2023/04/13 10:02:13;;;;;;;;;;;10.50;99.90;;;;;;5031001;28;19968;-64
2023/04/13 10:04:39;;;;;;;;;;;10.60;99.90;;;;;;5031831;28;19917;-65
2023/04/13 10:07:05;;;;;;;;;;;10.50;99.90;;;;;;5029737;28;20328;-64
2023/04/13 10:09:30;;;;;;;;;;;10.50;99.90;;;;;;5027795;28;19917;-64
2023/04/13 10:11:58;;;;;;;;;;;10.50;99.90;;;;;;5025565;28;20289;-63
2023/04/13 10:14:26;;;;;;;;;;;10.60;99.90;;;;;;5027595;28;19913;-63
2023/04/13 10:17:11;;;;;;;;;;;10.80;99.90;;;;;;5033830;28;19913;-62
2023/04/13 10:19:47;;;;;;;;;;;11.10;99.90;;;;;;5027974;28;19913;-62
2023/04/13 10:22:14;;;;;;;;;;;11.00;99.90;;;;;;5030533;28;19977;-63
2023/04/13 10:24:40;;;;;;;;;;;11.30;99.90;;;;;;5034137;28;19931;-63
2023/04/13 10:27:15;;;;;;;;;;;11.60;99.90;;;;;;5035030;28;20000;-63
2023/04/13 10:29:41;;;;;;;;;;;11.50;99.90;;;;;;5034981;28;19935;-63
2023/04/13 10:32:07;;;;;;;;;;;11.40;99.90;;;;;;5027578;28;20431;-62
2023/04/13 10:34:33;;;;;;;;;;;11.60;99.90;;;;;;5026815;28;20404;-61
2023/04/13 10:37:03;;;;;;;;;;;11.90;99.90;;;;;;5043693;28;20376;-62
2023/04/13 10:39:32;;;;;;;;;;;11.80;99.90;;;;;;5024387;28;20056;-62
2023/04/13 10:42:07;;;;;;;;;;;11.80;99.90;;;;;;5028161;28;19925;-62
2023/04/13 10:44:59;;;;;;;;;;;11.80;99.90;;;;;;5022281;28;19921;-61
2023/04/13 10:47:34;;;;;;;;;;;12.10;99.90;;;;;;5026600;28;19959;-63
2023/04/13 10:50:00;;;;;;;;;;;12.20;99.90;;;;;;5033259;28;20440;-62
2023/04/13 10:52:25;;;;;;;;;;;12.00;99.90;;;;;;5029441;28;20004;-62
2023/04/13 10:54:51;;;;;;;;;;;12.20;99.90;;;;;;5022509;28;19940;-62
2023/04/13 10:57:17;;;;;;;;;;;12.00;99.90;;;;;;5026219;28;20266;-62
2023/04/13 10:59:43;;;;;;;;;;;12.00;99.90;;;;;;5024460;28;20012;-61
2023/04/13 11:02:10;;;;;;;;;;;12.20;99.90;;;;;;5029827;28;20365;-62
2023/04/13 11:04:37;;;;;;;;;;;12.50;99.90;;;;;;5026827;28;20016;-62
2023/04/13 11:07:04;;;;;;;;;;;12.50;99.90;;;;;;5029878;28;19913;-62
2023/04/13 11:09:30;;;;;;;;;;;12.70;99.90;;;;;;5025879;28;19913;-62
2023/04/13 11:11:56;;;;;;;;;;;13.20;99.90;;;;;;5027285;28;20368;-63
2023/04/13 11:14:21;;;;;;;;;;;13.20;99.90;;;;;;5026510;28;19913;-63
2023/04/13 11:16:48;;;;;;;;;;;13.00;99.90;;;;;;5027377;28;19959;-64
2023/04/13 11:19:14;;;;;;;;;;;13.30;99.90;;;;;;5031075;28;20020;-62
2023/04/13 11:21:39;;;;;;;;;;;13.60;99.90;;;;;;5027237;28;20712;-61
2023/04/13 11:24:05;;;;;;;;;;;13.60;99.90;;;;;;5030243;28;19913;-63
2023/04/13 11:26:36;;;;;;;;;;;13.50;99.90;;;;;;5026032;28;19913;-63
2023/04/13 11:29:02;;;;;;;;;;;13.40;99.90;;;;;;5024156;28;19917;-63
2023/04/13 11:31:37;;;;;;;;;;;13.10;99.90;;;;;;5027527;28;19950;-63
2023/04/13 11:34:08;;;;;;;;;;;13.20;99.90;;;;;;5028325;28;19939;-63
2023/04/13 11:36:34;;;;;;;;;;;13.30;99.90;;;;;;5022640;28;19960;-61
2023/04/13 11:39:00;;;;;;;;;;;13.30;99.90;;;;;;5027310;28;19948;-62
2023/04/13 11:41:27;;;;;;;;;;;13.70;99.90;;;;;;5026325;28;19948;-62
2023/04/13 11:43:53;;;;;;;;;;;13.70;99.90;;;;;;5022856;28;19967;-61
2023/04/13 11:46:24;;;;;;;;;;;13.70;99.90;;;;;;5032914;28;19921;-61
2023/04/13 11:48:51;;;;;;;;;;;13.50;99.90;;;;;;5033273;28;19917;-62
2023/04/13 11:51:17;;;;;;;;;;;13.60;99.90;;;;;;5033544;28;19913;-62
2023/04/13 11:53:44;;;;;;;;;;;14.10;99.90;;;;;;5038216;28;20369;-62
2023/04/13 11:56:09;;;;;;;;;;;14.30;99.90;;;;;;5033964;28;19946;-62
2023/04/13 11:58:37;;;;;;;;;;;14.10;99.90;;;;;;5032716;28;19936;-62
2023/04/13 12:01:06;;;;;;;;;;;14.40;99.90;;;;;;5035374;28;19921;-62
2023/04/13 12:03:32;;;;;;;;;;;14.60;99.90;;;;;;5041836;28;19916;-62
2023/04/13 12:05:59;;;;;;;;;;;14.60;99.90;;;;;;5028939;28;19921;-62
2023/04/13 12:08:25;;;;;;;;;;;14.20;99.90;;;;;;5034750;28;19959;-61
2023/04/13 12:10:57;;;;;;;;;;;14.20;99.90;;;;;;5039235;28;20339;-62
2023/04/13 12:13:22;;;;;;;;;;;14.80;99.90;;;;;;5042184;28;19919;-61
2023/04/13 12:15:48;;;;;;;;;;;15.00;99.90;;;;;;5035720;28;20007;-61
2023/04/13 12:18:14;;;;;;;;;;;14.70;99.90;;;;;;5028960;28;20388;-62
2023/04/13 12:20:42;;;;;;;;;;;14.90;99.90;;;;;;5031688;28;19913;-61
2023/04/13 12:23:22;;;;;;;;;;;15.20;99.90;;;;;;5036730;28;20316;-61
2023/04/13 12:25:54;;;;;;;;;;;15.50;99.90;;;;;;5028488;28;19921;-61
2023/04/13 12:28:20;;;;;;;;;;;15.20;99.90;;;;;;5031562;28;19913;-61
2023/04/13 12:30:46;;;;;;;;;;;15.20;99.90;;;;;;5027804;28;20009;-61
2023/04/13 12:33:12;;;;;;;;;;;14.80;99.90;;;;;;5037747;28;19919;-61
2023/04/13 12:35:38;;;;;;;;;;;15.10;99.90;;;;;;5036080;28;19935;-61
2023/04/13 12:38:04;;;;;;;;;;;14.90;99.90;;;;;;5032374;28;19913;-61
2023/04/13 12:40:29;;;;;;;;;;;15.50;99.90;;;;;;5040146;28;20368;-62
2023/04/13 12:42:55;;;;;;;;;;;15.70;99.90;;;;;;5038915;28;19963;-61
2023/04/13 12:45:21;;;;;;;;;;;15.20;99.90;;;;;;5035437;28;19925;-61
2023/04/13 12:47:46;;;;;;;;;;;15.40;99.90;;;;;;5023549;28;19952;-63
2023/04/13 12:50:12;;;;;;;;;;;15.40;99.90;;;;;;5031845;28;19948;-61
2023/04/13 12:52:41;;;;;;;;;;;15.20;99.90;;;;;;5027429;28;19917;-61
2023/04/13 12:55:08;;;;;;;;;;;15.50;99.90;;;;;;5017870;28;19917;-62
2023/04/13 12:57:33;;;;;;;;;;;15.30;99.90;;;;;;5029908;28;20416;-62
2023/04/13 12:59:59;;;;;;;;;;;15.80;99.90;;;;;;5024584;28;19956;-62
2023/04/13 13:02:26;;;;;;;;;;;15.10;99.90;;;;;;5023995;28;19975;-62
2023/04/13 13:04:54;;;;;;;;;;;13.90;99.90;;;;;;5027104;28;20327;-61
2023/04/13 13:07:20;;;;;;;;;;;13.50;99.90;;;;;;5022158;28;19996;-59
2023/04/13 13:09:46;;;;;;;;;;;12.80;99.90;;;;;;5025654;28;19996;-61
2023/04/13 13:12:11;;;;;;;;;;;12.40;99.90;;;;;;5024920;28;19913;-62
2023/04/13 13:14:37;;;;;;;;;;;12.10;99.90;;;;;;5024393;28;20391;-62
2023/04/13 13:17:02;;;;;;;;;;;11.90;99.90;;;;;;5031193;28;20368;-61
2023/04/13 13:19:28;;;;;;;;;;;11.40;99.90;;;;;;5029865;28;19921;-62
2023/04/13 13:21:54;;;;;;;;;;;11.20;99.90;;;;;;5027902;28;19929;-62
2023/04/13 13:24:20;;;;;;;;;;;11.10;99.90;;;;;;5025178;28;19914;-62
2023/04/13 13:26:45;;;;;;;;;;;10.90;99.90;;;;;;5029825;28;19921;-62
2023/04/13 13:29:11;;;;;;;;;;;10.90;99.90;;;;;;5029098;28;20437;-62
2023/04/13 13:31:36;;;;;;;;;;;11.10;99.90;;;;;;5033873;28;19921;-61
2023/04/13 13:34:02;;;;;;;;;;;11.20;99.90;;;;;;5032092;28;19913;-61
2023/04/13 13:36:29;;;;;;;;;;;11.60;99.90;;;;;;5036140;28;20443;-60
2023/04/13 13:38:55;;;;;;;;;;;11.50;99.90;;;;;;5029355;28;19920;-61
2023/04/13 13:41:22;;;;;;;;;;;11.40;99.90;;;;;;5034106;28;19921;-60
2023/04/13 13:43:48;;;;;;;;;;;11.50;99.90;;;;;;5026624;28;19992;-61
2023/04/13 13:46:13;;;;;;;;;;;11.50;99.90;;;;;;5032124;28;20016;-61
2023/04/13 13:48:39;;;;;;;;;;;11.50;99.90;;;;;;5034848;28;19928;-62
2023/04/13 13:51:05;;;;;;;;;;;11.10;99.90;;;;;;5035225;28;19932;-61
2023/04/13 13:53:31;;;;;;;;;;;11.30;99.90;;;;;;5031587;28;20015;-62
2023/04/13 13:55:56;;;;;;;;;;;11.50;99.90;;;;;;5035416;28;19913;-62
2023/04/13 13:58:22;;;;;;;;;;;10.80;99.90;;;;;;5026314;28;19919;-63
2023/04/13 14:00:49;;;;;;;;;;;10.90;99.90;;;;;;5031198;28;19917;-61
2023/04/13 14:03:15;;;;;;;;;;;11.20;99.90;;;;;;5029305;28;20372;-61
2023/04/13 14:05:42;;;;;;;;;;;12.10;99.90;;;;;;5035223;28;19921;-62
2023/04/13 14:08:08;;;;;;;;;;;12.80;99.90;;;;;;5023132;28;20316;-61
2023/04/13 14:10:34;;;;;;;;;;;12.50;99.90;;;;;;5040020;28;20050;-60
2023/04/13 14:12:59;;;;;;;;;;;12.50;99.90;;;;;;5035430;28;20400;-62
2023/04/13 14:15:25;;;;;;;;;;;13.00;99.90;;;;;;5036109;28;19913;-61
2023/04/13 14:17:50;;;;;;;;;;;13.60;99.90;;;;;;5035755;28;20261;-62
2023/04/13 14:20:16;;;;;;;;;;;14.40;99.90;;;;;;5027608;28;19913;-62
2023/04/13 14:22:42;;;;;;;;;;;15.30;99.90;;;;;;5029518;28;19922;-62